sensor_id;sensor_type;location;lat;lon;timestamp;temperature;humidity
23669;DHT22;12011;47.422;15.018;2022-08-21T00:01:13;15.60;99.90
23669;DHT22;12011;47.422;15.018;2022-08-21T00:03:47;15.50;99.90
23669;DHT22;12011;47.422;15.018;2022-08-21T00:06:18;15.50;99.90
23669;DHT22;12011;47.422;15.018;2022-08-21T00:08:48;15.50;99.90
23669;DHT22;12011;47.422;15.018;2022-08-21T00:11:18;15.50;99.90
23669;DHT22;12011;47.422;15.018;2022-08-21T00:13:47;15.40;99.90
23669;DHT22;12011;47.422;15.018;2022-08-21T00:16:17;15.30;99.90
23669;DHT22;12011;47.422;15.018;2022-08-21T00:18:50;15.40;99.90
23669;DHT22;12011;47.422;15.018;2022-08-21T00:21:19;15.50;99.90
23669;DHT22;12011;47.422;15.018;2022-08-21T00:23:50;15.60;99.90
23669;DHT22;12011;47.422;15.018;2022-08-21T00:26:19;15.70;99.90
23669;DHT22;12011;47.422;15.018;2022-08-21T00:28:49;15.70;99.90
23669;DHT22;12011;47.422;15.018;2022-08-21T00:31:19;15.60;99.90
23669;DHT22;12011;47.422;15.018;2022-08-21T00:33:51;15.50;99.90
23669;DHT22;12011;47.422;15.018;2022-08-21T00:36:21;15.50;99.90
23669;DHT22;12011;47.422;15.018;2022-08-21T00:38:51;15.60;99.90
23669;DHT22;12011;47.422;15.018;2022-08-21T00:41:21;15.50;99.90
23669;DHT22;12011;47.422;15.018;2022-08-21T00:43:50;15.60;99.90
23669;DHT22;12011;47.422;15.018;2022-08-21T00:46:20;15.60;99.90
23669;DHT22;12011;47.422;15.018;2022-08-21T00:48:53;15.60;99.90
23669;DHT22;12011;47.422;15.018;2022-08-21T00:51:35;15.60;99.90
23669;DHT22;12011;47.422;15.018;2022-08-21T00:54:09;15.70;99.90
23669;DHT22;12011;47.422;15.018;2022-08-21T00:56:39;15.60;99.90
23669;DHT22;12011;47.422;15.018;2022-08-21T00:59:10;15.50;99.90
23669;DHT22;12011;47.422;15.018;2022-08-21T01:01:40;15.60;99.90
23669;DHT22;12011;47.422;15.018;2022-08-21T01:04:12;15.60;99.90
23669;DHT22;12011;47.422;15.018;2022-08-21T01:06:42;15.70;99.90
23669;DHT22;12011;47.422;15.018;2022-08-21T01:09:15;15.70;99.90
23669;DHT22;12011;47.422;15.018;2022-08-21T01:11:45;15.80;99.90
23669;DHT22;12011;47.422;15.018;2022-08-21T01:14:16;15.70;99.90
23669;DHT22;12011;47.422;15.018;2022-08-21T01:16:50;15.80;99.90
23669;DHT22;12011;47.422;15.018;2022-08-21T01:19:24;15.80;99.90
23669;DHT22;12011;47.422;15.018;2022-08-21T01:21:58;15.70;99.90
23669;DHT22;12011;47.422;15.018;2022-08-21T01:24:28;15.70;99.90
23669;DHT22;12011;47.422;15.018;2022-08-21T01:27:01;15.70;99.90
23669;DHT22;12011;47.422;15.018;2022-08-21T01:29:37;15.60;99.90
23669;DHT22;12011;47.422;15.018;2022-08-21T01:32:15;15.50;99.90
23669;DHT22;12011;47.422;15.018;2022-08-21T01:34:49;15.70;99.90
23669;DHT22;12011;47.422;15.018;2022-08-21T01:37:22;15.70;99.90
23669;DHT22;12011;47.422;15.018;2022-08-21T01:39:52;15.70;99.90
23669;DHT22;12011;47.422;15.018;2022-08-21T01:42:22;15.60;99.90
23669;DHT22;12011;47.422;15.018;2022-08-21T01:44:52;15.60;99.90
23669;DHT22;12011;47.422;15.018;2022-08-21T01:47:23;15.60;99.90
23669;DHT22;12011;47.422;15.018;2022-08-21T01:49:53;15.60;99.90
23669;DHT22;12011;47.422;15.018;2022-08-21T01:52:25;15.50;99.90
23669;DHT22;12011;47.422;15.018;2022-08-21T01:54:55;15.50;99.90
23669;DHT22;12011;47.422;15.018;2022-08-21T01:57:25;15.50;99.90
23669;DHT22;12011;47.422;15.018;2022-08-21T01:59:55;15.80;99.90
23669;DHT22;12011;47.422;15.018;2022-08-21T02:02:24;15.80;99.90
23669;DHT22;12011;47.422;15.018;2022-08-21T02:04:54;15.80;99.90
23669;DHT22;12011;47.422;15.018;2022-08-21T02:07:26;15.70;99.90
23669;DHT22;12011;47.422;15.018;2022-08-21T02:09:56;15.70;99.90
23669;DHT22;12011;47.422;15.018;2022-08-21T02:12:25;15.60;99.90
23669;DHT22;12011;47.422;15.018;2022-08-21T02:14:55;15.50;99.90
23669;DHT22;12011;47.422;15.018;2022-08-21T02:17:24;15.40;99.90
23669;DHT22;12011;47.422;15.018;2022-08-21T02:19:54;15.40;99.90
23669;DHT22;12011;47.422;15.018;2022-08-21T02:22:26;15.30;99.90
23669;DHT22;12011;47.422;15.018;2022-08-21T02:24:56;15.30;99.90
23669;DHT22;12011;47.422;15.018;2022-08-21T02:27:26;15.40;99.90
23669;DHT22;12011;47.422;15.018;2022-08-21T02:29:57;15.40;99.90
23669;DHT22;12011;47.422;15.018;2022-08-21T02:32:27;15.40;99.90
23669;DHT22;12011;47.422;15.018;2022-08-21T02:34:57;15.50;99.90
23669;DHT22;12011;47.422;15.018;2022-08-21T02:37:29;15.40;99.90
23669;DHT22;12011;47.422;15.018;2022-08-21T02:39:59;15.50;99.90
23669;DHT22;12011;47.422;15.018;2022-08-21T02:42:29;15.40;99.90
23669;DHT22;12011;47.422;15.018;2022-08-21T02:44:58;15.40;99.90
23669;DHT22;12011;47.422;15.018;2022-08-21T02:47:28;15.40;99.90
23669;DHT22;12011;47.422;15.018;2022-08-21T02:49:58;15.50;99.90
23669;DHT22;12011;47.422;15.018;2022-08-21T02:52:31;15.40;99.90
23669;DHT22;12011;47.422;15.018;2022-08-21T02:55:00;15.50;99.90
23669;DHT22;12011;47.422;15.018;2022-08-21T02:57:31;15.50;99.90
23669;DHT22;12011;47.422;15.018;2022-08-21T03:00:00;15.40;99.90
23669;DHT22;12011;47.422;15.018;2022-08-21T03:02:30;15.40;99.90
23669;DHT22;12011;47.422;15.018;2022-08-21T03:05:00;15.30;99.90
23669;DHT22;12011;47.422;15.018;2022-08-21T03:07:33;15.30;99.90
23669;DHT22;12011;47.422;15.018;2022-08-21T03:10:03;15.30;99.90
23669;DHT22;12011;47.422;15.018;2022-08-21T03:12:34;15.30;99.90
23669;DHT22;12011;47.422;15.018;2022-08-21T03:15:06;15.30;99.90
23669;DHT22;12011;47.422;15.018;2022-08-21T03:17:38;15.40;99.90
23669;DHT22;12011;47.422;15.018;2022-08-21T03:20:10;15.50;99.90
23669;DHT22;12011;47.422;15.018;2022-08-21T03:22:43;15.60;99.90
23669;DHT22;12011;47.422;15.018;2022-08-21T03:25:12;15.80;99.90
23669;DHT22;12011;47.422;15.018;2022-08-21T03:27:42;15.80;99.90
23669;DHT22;12011;47.422;15.018;2022-08-21T03:30:12;15.90;99.90
23669;DHT22;12011;47.422;15.018;2022-08-21T03:32:42;15.80;99.90
23669;DHT22;12011;47.422;15.018;2022-08-21T03:35:13;15.80;99.90
23669;DHT22;12011;47.422;15.018;2022-08-21T03:37:46;15.80;99.90
23669;DHT22;12011;47.422;15.018;2022-08-21T03:40:18;15.70;99.90
23669;DHT22;12011;47.422;15.018;2022-08-21T03:42:51;15.70;99.90
23669;DHT22;12011;47.422;15.018;2022-08-21T03:45:21;15.70;99.90
23669;DHT22;12011;47.422;15.018;2022-08-21T03:47:53;15.70;99.90
23669;DHT22;12011;47.422;15.018;2022-08-21T03:50:28;15.70;99.90
23669;DHT22;12011;47.422;15.018;2022-08-21T03:53:01;15.70;99.90
23669;DHT22;12011;47.422;15.018;2022-08-21T03:55:31;15.60;99.90
23669;DHT22;12011;47.422;15.018;2022-08-21T03:58:00;15.60;99.90
23669;DHT22;12011;47.422;15.018;2022-08-21T04:00:32;15.70;99.90
23669;DHT22;12011;47.422;15.018;2022-08-21T04:03:02;15.70;99.90
23669;DHT22;12011;47.422;15.018;2022-08-21T04:05:33;15.90;99.90
23669;DHT22;12011;47.422;15.018;2022-08-21T04:08:06;15.90;99.90
23669;DHT22;12011;47.422;15.018;2022-08-21T04:10:37;15.90;99.90
23669;DHT22;12011;47.422;15.018;2022-08-21T04:13:08;15.90;99.90
23669;DHT22;12011;47.422;15.018;2022-08-21T04:15:38;16.00;99.90
23669;DHT22;12011;47.422;15.018;2022-08-21T04:18:09;16.00;99.90
23669;DHT22;12011;47.422;15.018;2022-08-21T04:20:40;16.10;99.90
23669;DHT22;12011;47.422;15.018;2022-08-21T04:23:14;16.10;99.90
23669;DHT22;12011;47.422;15.018;2022-08-21T04:25:43;16.00;99.90
23669;DHT22;12011;47.422;15.018;2022-08-21T04:28:13;16.00;99.90
23669;DHT22;12011;47.422;15.018;2022-08-21T04:30:42;15.90;99.90
23669;DHT22;12011;47.422;15.018;2022-08-21T04:33:13;15.90;99.90
23669;DHT22;12011;47.422;15.018;2022-08-21T04:35:42;16.00;99.90
23669;DHT22;12011;47.422;15.018;2022-08-21T04:38:15;16.10;99.90
23669;DHT22;12011;47.422;15.018;2022-08-21T04:40:45;16.10;99.90
23669;DHT22;12011;47.422;15.018;2022-08-21T04:43:15;16.10;99.90
23669;DHT22;12011;47.422;15.018;2022-08-21T04:45:47;16.20;99.90
23669;DHT22;12011;47.422;15.018;2022-08-21T04:48:20;16.20;99.90
23669;DHT22;12011;47.422;15.018;2022-08-21T04:50:54;16.20;99.90
23669;DHT22;12011;47.422;15.018;2022-08-21T04:53:33;16.20;99.90
23669;DHT22;12011;47.422;15.018;2022-08-21T04:56:09;16.30;99.90
23669;DHT22;12011;47.422;15.018;2022-08-21T04:58:42;16.30;99.90
23669;DHT22;12011;47.422;15.018;2022-08-21T05:01:17;16.40;99.90
23669;DHT22;12011;47.422;15.018;2022-08-21T05:03:53;16.50;99.90
23669;DHT22;12011;47.422;15.018;2022-08-21T05:06:26;16.50;99.90
23669;DHT22;12011;47.422;15.018;2022-08-21T05:09:01;16.60;99.90
23669;DHT22;12011;47.422;15.018;2022-08-21T05:11:31;16.60;99.90
23669;DHT22;12011;47.422;15.018;2022-08-21T05:14:01;16.70;99.90
23669;DHT22;12011;47.422;15.018;2022-08-21T05:16:31;16.70;99.90
23669;DHT22;12011;47.422;15.018;2022-08-21T05:19:01;16.90;99.00
23669;DHT22;12011;47.422;15.018;2022-08-21T05:21:31;17.00;98.00
23669;DHT22;12011;47.422;15.018;2022-08-21T05:24:04;17.10;96.80
23669;DHT22;12011;47.422;15.018;2022-08-21T05:26:34;17.10;99.90
23669;DHT22;12011;47.422;15.018;2022-08-21T05:29:05;17.10;94.60
23669;DHT22;12011;47.422;15.018;2022-08-21T05:31:35;17.30;96.70
23669;DHT22;12011;47.422;15.018;2022-08-21T05:34:05;17.30;94.80
23669;DHT22;12011;47.422;15.018;2022-08-21T05:36:35;17.40;90.90
23669;DHT22;12011;47.422;15.018;2022-08-21T05:39:07;17.50;84.70
23669;DHT22;12011;47.422;15.018;2022-08-21T05:41:37;17.50;92.10
23669;DHT22;12011;47.422;15.018;2022-08-21T05:44:07;17.50;90.90
23669;DHT22;12011;47.422;15.018;2022-08-21T05:46:37;17.50;92.10
23669;DHT22;12011;47.422;15.018;2022-08-21T05:49:06;17.50;88.60
23669;DHT22;12011;47.422;15.018;2022-08-21T05:51:36;17.60;92.10
23669;DHT22;12011;47.422;15.018;2022-08-21T05:54:10;17.60;86.90
23669;DHT22;12011;47.422;15.018;2022-08-21T05:56:40;17.60;86.60
23669;DHT22;12011;47.422;15.018;2022-08-21T05:59:10;17.70;82.40
23669;DHT22;12011;47.422;15.018;2022-08-21T06:01:40;17.80;84.80
23669;DHT22;12011;47.422;15.018;2022-08-21T06:04:11;17.90;82.90
23669;DHT22;12011;47.422;15.018;2022-08-21T06:06:41;17.80;88.70
23669;DHT22;12011;47.422;15.018;2022-08-21T06:09:13;17.60;93.40
23669;DHT22;12011;47.422;15.018;2022-08-21T06:11:43;17.50;90.10
23669;DHT22;12011;47.422;15.018;2022-08-21T06:14:14;17.50;88.20
23669;DHT22;12011;47.422;15.018;2022-08-21T06:16:44;17.50;88.80
23669;DHT22;12011;47.422;15.018;2022-08-21T06:19:14;17.50;90.10
23669;DHT22;12011;47.422;15.018;2022-08-21T06:21:43;17.40;92.50
23669;DHT22;12011;47.422;15.018;2022-08-21T06:24:16;17.30;94.20
23669;DHT22;12011;47.422;15.018;2022-08-21T06:26:45;17.10;96.90
23669;DHT22;12011;47.422;15.018;2022-08-21T06:29:15;17.10;98.10
23669;DHT22;12011;47.422;15.018;2022-08-21T06:31:47;17.10;99.90
23669;DHT22;12011;47.422;15.018;2022-08-21T06:34:18;17.30;96.10
23669;DHT22;12011;47.422;15.018;2022-08-21T06:36:48;17.40;94.10
23669;DHT22;12011;47.422;15.018;2022-08-21T06:39:20;17.60;93.20
23669;DHT22;12011;47.422;15.018;2022-08-21T06:41:50;17.80;92.50
23669;DHT22;12011;47.422;15.018;2022-08-21T06:44:27;17.80;91.20
23669;DHT22;12011;47.422;15.018;2022-08-21T06:46:56;17.90;91.00
23669;DHT22;12011;47.422;15.018;2022-08-21T06:49:26;18.00;90.50
23669;DHT22;12011;47.422;15.018;2022-08-21T06:51:56;18.10;88.30
23669;DHT22;12011;47.422;15.018;2022-08-21T06:54:28;18.30;86.10
23669;DHT22;12011;47.422;15.018;2022-08-21T06:56:57;18.40;87.80
23669;DHT22;12011;47.422;15.018;2022-08-21T06:59:27;18.50;84.60
23669;DHT22;12011;47.422;15.018;2022-08-21T07:01:57;18.60;85.50
23669;DHT22;12011;47.422;15.018;2022-08-21T07:04:29;18.70;80.70
23669;DHT22;12011;47.422;15.018;2022-08-21T07:06:58;18.90;82.40
23669;DHT22;12011;47.422;15.018;2022-08-21T07:09:31;19.10;78.80
23669;DHT22;12011;47.422;15.018;2022-08-21T07:12:02;19.40;76.60
23669;DHT22;12011;47.422;15.018;2022-08-21T07:14:36;19.50;72.00
23669;DHT22;12011;47.422;15.018;2022-08-21T07:17:05;19.50;73.20
23669;DHT22;12011;47.422;15.018;2022-08-21T07:19:35;19.50;77.60
23669;DHT22;12011;47.422;15.018;2022-08-21T07:22:06;19.40;76.10
23669;DHT22;12011;47.422;15.018;2022-08-21T07:24:38;19.40;78.20
23669;DHT22;12011;47.422;15.018;2022-08-21T07:27:12;19.50;78.20
23669;DHT22;12011;47.422;15.018;2022-08-21T07:29:43;19.60;80.70
23669;DHT22;12011;47.422;15.018;2022-08-21T07:32:15;19.70;79.80
23669;DHT22;12011;47.422;15.018;2022-08-21T07:34:45;19.60;77.00
23669;DHT22;12011;47.422;15.018;2022-08-21T07:37:16;19.70;87.20
23669;DHT22;12011;47.422;15.018;2022-08-21T07:39:49;19.70;76.60
23669;DHT22;12011;47.422;15.018;2022-08-21T07:42:19;19.60;75.90
23669;DHT22;12011;47.422;15.018;2022-08-21T07:44:51;19.60;76.30
23669;DHT22;12011;47.422;15.018;2022-08-21T07:47:21;19.60;87.40
23669;DHT22;12011;47.422;15.018;2022-08-21T07:49:53;19.70;79.60
23669;DHT22;12011;47.422;15.018;2022-08-21T07:52:23;19.80;76.10
23669;DHT22;12011;47.422;15.018;2022-08-21T07:54:57;20.10;88.70
23669;DHT22;12011;47.422;15.018;2022-08-21T07:57:27;20.20;84.80
23669;DHT22;12011;47.422;15.018;2022-08-21T07:59:57;20.20;80.50
23669;DHT22;12011;47.422;15.018;2022-08-21T08:02:30;20.30;78.10
23669;DHT22;12011;47.422;15.018;2022-08-21T08:05:02;20.40;79.80
23669;DHT22;12011;47.422;15.018;2022-08-21T08:07:37;20.50;78.00
23669;DHT22;12011;47.422;15.018;2022-08-21T08:10:10;20.60;79.10
23669;DHT22;12011;47.422;15.018;2022-08-21T08:12:42;20.70;85.50
23669;DHT22;12011;47.422;15.018;2022-08-21T08:15:16;20.60;75.30
23669;DHT22;12011;47.422;15.018;2022-08-21T08:17:54;20.60;77.40
23669;DHT22;12011;47.422;15.018;2022-08-21T08:20:26;20.60;77.60
23669;DHT22;12011;47.422;15.018;2022-08-21T08:22:56;20.50;71.90
23669;DHT22;12011;47.422;15.018;2022-08-21T08:25:30;20.50;77.10
23669;DHT22;12011;47.422;15.018;2022-08-21T08:28:00;20.40;75.40
23669;DHT22;12011;47.422;15.018;2022-08-21T08:30:32;20.40;77.40
23669;DHT22;12011;47.422;15.018;2022-08-21T08:33:02;20.40;77.90
23669;DHT22;12011;47.422;15.018;2022-08-21T08:35:35;20.50;84.40
23669;DHT22;12011;47.422;15.018;2022-08-21T08:38:06;20.60;77.90
23669;DHT22;12011;47.422;15.018;2022-08-21T08:40:46;20.80;76.90
23669;DHT22;12011;47.422;15.018;2022-08-21T08:43:22;21.20;81.80
23669;DHT22;12011;47.422;15.018;2022-08-21T08:45:57;21.60;72.80
23669;DHT22;12011;47.422;15.018;2022-08-21T08:48:45;22.30;72.40
23669;DHT22;12011;47.422;15.018;2022-08-21T08:51:23;23.80;71.30
23669;DHT22;12011;47.422;15.018;2022-08-21T08:54:07;23.60;63.20
23669;DHT22;12011;47.422;15.018;2022-08-21T08:56:44;23.10;63.10
23669;DHT22;12011;47.422;15.018;2022-08-21T08:59:23;22.50;66.60
23669;DHT22;12011;47.422;15.018;2022-08-21T09:01:58;22.30;67.10
23669;DHT22;12011;47.422;15.018;2022-08-21T09:04:29;21.90;67.40
23669;DHT22;12011;47.422;15.018;2022-08-21T09:07:15;22.10;68.90
23669;DHT22;12011;47.422;15.018;2022-08-21T09:10:05;22.10;70.80
23669;DHT22;12011;47.422;15.018;2022-08-21T09:12:56;22.10;67.70
23669;DHT22;12011;47.422;15.018;2022-08-21T09:15:35;22.10;69.40
23669;DHT22;12011;47.422;15.018;2022-08-21T09:18:43;22.00;67.70
23669;DHT22;12011;47.422;15.018;2022-08-21T09:21:28;22.00;68.70
23669;DHT22;12011;47.422;15.018;2022-08-21T09:24:26;22.20;68.90
23669;DHT22;12011;47.422;15.018;2022-08-21T09:27:08;22.10;73.40
23669;DHT22;12011;47.422;15.018;2022-08-21T09:29:44;22.10;73.20
23669;DHT22;12011;47.422;15.018;2022-08-21T09:32:24;22.10;77.70
23669;DHT22;12011;47.422;15.018;2022-08-21T09:34:59;22.20;71.70
23669;DHT22;12011;47.422;15.018;2022-08-21T09:37:32;22.40;71.00
23669;DHT22;12011;47.422;15.018;2022-08-21T09:40:19;24.00;66.90
23669;DHT22;12011;47.422;15.018;2022-08-21T09:43:02;25.80;61.10
23669;DHT22;12011;47.422;15.018;2022-08-21T09:45:43;25.70;61.60
23669;DHT22;12011;47.422;15.018;2022-08-21T09:48:20;25.50;60.10
23669;DHT22;12011;47.422;15.018;2022-08-21T09:51:07;25.30;59.20
23669;DHT22;12011;47.422;15.018;2022-08-21T09:53:47;25.00;59.40
23669;DHT22;12011;47.422;15.018;2022-08-21T09:56:31;24.50;61.80
23669;DHT22;12011;47.422;15.018;2022-08-21T09:59:24;24.40;60.70
23669;DHT22;12011;47.422;15.018;2022-08-21T10:02:07;24.10;61.30
23669;DHT22;12011;47.422;15.018;2022-08-21T10:04:54;23.60;63.40
23669;DHT22;12011;47.422;15.018;2022-08-21T10:07:30;23.70;64.60
23669;DHT22;12011;47.422;15.018;2022-08-21T10:10:14;24.00;63.70
23669;DHT22;12011;47.422;15.018;2022-08-21T10:12:55;24.40;62.80
23669;DHT22;12011;47.422;15.018;2022-08-21T10:15:45;24.40;62.70
23669;DHT22;12011;47.422;15.018;2022-08-21T10:18:38;24.10;62.10
23669;DHT22;12011;47.422;15.018;2022-08-21T10:21:21;23.90;61.10
23669;DHT22;12011;47.422;15.018;2022-08-21T10:24:11;23.40;63.00
23669;DHT22;12011;47.422;15.018;2022-08-21T10:27:02;23.40;67.00
23669;DHT22;12011;47.422;15.018;2022-08-21T10:29:47;23.20;64.60
23669;DHT22;12011;47.422;15.018;2022-08-21T10:32:53;22.90;63.20
23669;DHT22;12011;47.422;15.018;2022-08-21T10:35:36;22.30;66.80
23669;DHT22;12011;47.422;15.018;2022-08-21T10:41:48;22.20;72.00
23669;DHT22;12011;47.422;15.018;2022-08-21T10:44:35;22.50;72.10
23669;DHT22;12011;47.422;15.018;2022-08-21T10:47:16;22.70;64.60
23669;DHT22;12011;47.422;15.018;2022-08-21T10:49:59;22.60;63.00
23669;DHT22;12011;47.422;15.018;2022-08-21T10:55:59;22.50;63.20
23669;DHT22;12011;47.422;15.018;2022-08-21T10:58:36;22.40;65.40
23669;DHT22;12011;47.422;15.018;2022-08-21T11:01:13;22.60;67.20
23669;DHT22;12011;47.422;15.018;2022-08-21T11:03:59;22.50;63.30
23669;DHT22;12011;47.422;15.018;2022-08-21T11:06:44;22.90;65.50
23669;DHT22;12011;47.422;15.018;2022-08-21T11:09:21;22.90;66.10
23669;DHT22;12011;47.422;15.018;2022-08-21T11:11:59;23.10;66.00
23669;DHT22;12011;47.422;15.018;2022-08-21T11:14:41;23.20;64.10
23669;DHT22;12011;47.422;15.018;2022-08-21T11:17:27;22.90;62.60
23669;DHT22;12011;47.422;15.018;2022-08-21T11:20:08;22.70;63.10
23669;DHT22;12011;47.422;15.018;2022-08-21T11:22:49;22.60;65.90
23669;DHT22;12011;47.422;15.018;2022-08-21T11:25:31;22.50;64.30
23669;DHT22;12011;47.422;15.018;2022-08-21T11:28:10;22.40;69.20
23669;DHT22;12011;47.422;15.018;2022-08-21T11:30:55;22.60;67.90
23669;DHT22;12011;47.422;15.018;2022-08-21T11:33:52;22.50;66.30
23669;DHT22;12011;47.422;15.018;2022-08-21T11:36:38;22.30;67.40
23669;DHT22;12011;47.422;15.018;2022-08-21T11:39:21;22.40;69.40
23669;DHT22;12011;47.422;15.018;2022-08-21T11:42:15;22.30;69.40
23669;DHT22;12011;47.422;15.018;2022-08-21T11:44:52;22.30;71.40
23669;DHT22;12011;47.422;15.018;2022-08-21T11:47:38;22.30;71.40
23669;DHT22;12011;47.422;15.018;2022-08-21T11:50:18;22.40;67.00
23669;DHT22;12011;47.422;15.018;2022-08-21T11:52:59;22.40;67.80
23669;DHT22;12011;47.422;15.018;2022-08-21T11:55:36;22.60;69.80
23669;DHT22;12011;47.422;15.018;2022-08-21T11:58:19;22.80;68.70
23669;DHT22;12011;47.422;15.018;2022-08-21T12:01:00;22.80;65.80
23669;DHT22;12011;47.422;15.018;2022-08-21T12:03:36;23.00;67.50
23669;DHT22;12011;47.422;15.018;2022-08-21T12:06:11;22.90;70.50
23669;DHT22;12011;47.422;15.018;2022-08-21T12:08:46;22.80;67.30
23669;DHT22;12011;47.422;15.018;2022-08-21T12:11:27;22.70;65.90
23669;DHT22;12011;47.422;15.018;2022-08-21T12:14:16;22.70;66.00
23669;DHT22;12011;47.422;15.018;2022-08-21T12:16:49;22.80;65.10
23669;DHT22;12011;47.422;15.018;2022-08-21T12:19:30;22.70;67.30
23669;DHT22;12011;47.422;15.018;2022-08-21T12:22:09;22.90;68.70
23669;DHT22;12011;47.422;15.018;2022-08-21T12:24:45;22.70;66.00
23669;DHT22;12011;47.422;15.018;2022-08-21T12:27:26;22.50;66.20
23669;DHT22;12011;47.422;15.018;2022-08-21T12:30:02;22.30;65.60
23669;DHT22;12011;47.422;15.018;2022-08-21T12:32:45;22.20;66.70
23669;DHT22;12011;47.422;15.018;2022-08-21T12:35:31;22.10;66.80
23669;DHT22;12011;47.422;15.018;2022-08-21T12:38:09;21.80;67.30
23669;DHT22;12011;47.422;15.018;2022-08-21T12:40:52;21.90;67.80
23669;DHT22;12011;47.422;15.018;2022-08-21T12:43:30;21.90;67.40
23669;DHT22;12011;47.422;15.018;2022-08-21T12:46:05;22.00;77.70
23669;DHT22;12011;47.422;15.018;2022-08-21T12:48:44;22.20;84.30
23669;DHT22;12011;47.422;15.018;2022-08-21T12:51:22;22.50;72.10
23669;DHT22;12011;47.422;15.018;2022-08-21T12:53:56;22.50;66.60
23669;DHT22;12011;47.422;15.018;2022-08-21T12:56:32;22.20;66.20
23669;DHT22;12011;47.422;15.018;2022-08-21T12:59:14;22.00;68.10
23669;DHT22;12011;47.422;15.018;2022-08-21T13:01:50;21.80;68.60
23669;DHT22;12011;47.422;15.018;2022-08-21T13:04:36;21.70;68.00
23669;DHT22;12011;47.422;15.018;2022-08-21T13:07:11;21.40;66.50
23669;DHT22;12011;47.422;15.018;2022-08-21T13:09:48;21.40;70.40
23669;DHT22;12011;47.422;15.018;2022-08-21T13:12:21;21.40;69.60
23669;DHT22;12011;47.422;15.018;2022-08-21T13:14:54;21.10;67.70
23669;DHT22;12011;47.422;15.018;2022-08-21T13:17:32;21.00;69.00
23669;DHT22;12011;47.422;15.018;2022-08-21T13:20:08;21.00;69.20
23669;DHT22;12011;47.422;15.018;2022-08-21T13:22:43;21.00;75.90
23669;DHT22;12011;47.422;15.018;2022-08-21T13:25:16;20.90;72.20
23669;DHT22;12011;47.422;15.018;2022-08-21T13:27:59;20.50;69.10
23669;DHT22;12011;47.422;15.018;2022-08-21T13:30:30;20.70;80.40
23669;DHT22;12011;47.422;15.018;2022-08-21T13:33:06;20.50;71.70
23669;DHT22;12011;47.422;15.018;2022-08-21T13:35:47;20.50;73.40
23669;DHT22;12011;47.422;15.018;2022-08-21T13:38:24;20.50;80.40
23669;DHT22;12011;47.422;15.018;2022-08-21T13:40:58;20.50;70.20
23669;DHT22;12011;47.422;15.018;2022-08-21T13:43:33;20.30;73.70
23669;DHT22;12011;47.422;15.018;2022-08-21T13:46:09;20.30;77.60
23669;DHT22;12011;47.422;15.018;2022-08-21T13:48:43;20.30;80.60
23669;DHT22;12011;47.422;15.018;2022-08-21T13:51:13;20.20;80.90
23669;DHT22;12011;47.422;15.018;2022-08-21T13:53:47;20.10;80.00
23669;DHT22;12011;47.422;15.018;2022-08-21T13:56:26;20.50;92.10
23669;DHT22;12011;47.422;15.018;2022-08-21T13:58:58;20.40;75.00
23669;DHT22;12011;47.422;15.018;2022-08-21T14:01:32;20.70;78.60
23669;DHT22;12011;47.422;15.018;2022-08-21T14:04:24;20.70;78.90
23669;DHT22;12011;47.422;15.018;2022-08-21T14:06:56;20.80;76.50
23669;DHT22;12011;47.422;15.018;2022-08-21T14:09:30;20.60;79.60
23669;DHT22;12011;47.422;15.018;2022-08-21T14:12:12;20.70;77.40
23669;DHT22;12011;47.422;15.018;2022-08-21T14:14:46;20.60;75.40
23669;DHT22;12011;47.422;15.018;2022-08-21T14:17:29;20.80;76.60
23669;DHT22;12011;47.422;15.018;2022-08-21T14:20:06;20.90;79.20
23669;DHT22;12011;47.422;15.018;2022-08-21T14:22:39;20.90;76.30
23669;DHT22;12011;47.422;15.018;2022-08-21T14:25:15;20.90;73.80
23669;DHT22;12011;47.422;15.018;2022-08-21T14:28:03;21.00;71.60
23669;DHT22;12011;47.422;15.018;2022-08-21T14:30:43;20.90;72.80
23669;DHT22;12011;47.422;15.018;2022-08-21T14:33:25;20.80;73.60
23669;DHT22;12011;47.422;15.018;2022-08-21T14:35:58;20.80;74.90
23669;DHT22;12011;47.422;15.018;2022-08-21T14:38:29;20.80;71.80
23669;DHT22;12011;47.422;15.018;2022-08-21T14:41:06;21.00;79.10
23669;DHT22;12011;47.422;15.018;2022-08-21T14:43:43;21.00;70.00
23669;DHT22;12011;47.422;15.018;2022-08-21T14:46:13;21.00;70.50
23669;DHT22;12011;47.422;15.018;2022-08-21T14:48:47;20.80;71.30
23669;DHT22;12011;47.422;15.018;2022-08-21T14:51:20;20.90;71.70
23669;DHT22;12011;47.422;15.018;2022-08-21T14:53:50;21.00;69.00
23669;DHT22;12011;47.422;15.018;2022-08-21T14:56:19;21.00;65.10
23669;DHT22;12011;47.422;15.018;2022-08-21T14:58:52;20.90;63.00
23669;DHT22;12011;47.422;15.018;2022-08-21T15:01:22;20.90;62.20
23669;DHT22;12011;47.422;15.018;2022-08-21T15:03:52;20.90;64.00
23669;DHT22;12011;47.422;15.018;2022-08-21T15:06:24;20.80;68.30
23669;DHT22;12011;47.422;15.018;2022-08-21T15:08:53;20.80;63.00
23669;DHT22;12011;47.422;15.018;2022-08-21T15:11:25;20.50;63.90
23669;DHT22;12011;47.422;15.018;2022-08-21T15:13:59;20.30;66.00
23669;DHT22;12011;47.422;15.018;2022-08-21T15:16:30;20.30;63.90
23669;DHT22;12011;47.422;15.018;2022-08-21T15:19:00;20.30;68.60
23669;DHT22;12011;47.422;15.018;2022-08-21T15:21:32;20.40;67.20
23669;DHT22;12011;47.422;15.018;2022-08-21T15:24:02;20.30;64.50
23669;DHT22;12011;47.422;15.018;2022-08-21T15:26:34;20.20;66.00
23669;DHT22;12011;47.422;15.018;2022-08-21T15:29:06;20.30;63.70
23669;DHT22;12011;47.422;15.018;2022-08-21T15:31:38;20.20;62.30
23669;DHT22;12011;47.422;15.018;2022-08-21T15:34:20;20.10;63.60
23669;DHT22;12011;47.422;15.018;2022-08-21T15:36:53;20.00;61.20
23669;DHT22;12011;47.422;15.018;2022-08-21T15:39:23;20.00;63.70
23669;DHT22;12011;47.422;15.018;2022-08-21T15:41:53;19.90;64.20
23669;DHT22;12011;47.422;15.018;2022-08-21T15:44:28;19.80;66.10
23669;DHT22;12011;47.422;15.018;2022-08-21T15:46:59;19.80;64.20
23669;DHT22;12011;47.422;15.018;2022-08-21T15:49:29;19.70;65.80
23669;DHT22;12011;47.422;15.018;2022-08-21T15:52:02;19.80;69.70
23669;DHT22;12011;47.422;15.018;2022-08-21T15:54:32;19.70;67.30
23669;DHT22;12011;47.422;15.018;2022-08-21T15:57:01;19.70;64.20
23669;DHT22;12011;47.422;15.018;2022-08-21T15:59:39;19.80;66.10
23669;DHT22;12011;47.422;15.018;2022-08-21T16:02:15;19.80;67.10
23669;DHT22;12011;47.422;15.018;2022-08-21T16:04:46;19.80;67.00
23669;DHT22;12011;47.422;15.018;2022-08-21T16:07:19;19.70;67.30